Time;durP1;ratioP1;P1;durP2;ratioP2;P2;SDS_P1;SDS_P2;PMS_P1;PMS_P2;Temp;Humidity;BMP_temperature;BMP_pressure;BME280_temperature;BME280_humidity;BME280_pressure;Samples;Min_cycle;Max_cycle;Signal;HPM_P1;HPM_P2
2021/11/11 00:00:25;;;;;;;3.17;2.03;;;;;;;8.47;100.00;100559.19;5029351;28;20443;-49
2021/11/11 00:03:28;;;;;;;11.95;2.70;;;;;;;8.50;100.00;100544.44;5029364;28;20320;-49
2021/11/11 00:06:32;;;;;;;6.35;2.88;;;;;;;8.53;100.00;100554.66;5030037;28;20052;-49
2021/11/11 00:09:35;;;;;;;20.38;3.65;;;;;;;8.52;100.00;100544.78;5050710;28;20298;-49
2021/11/11 00:12:39;;;;;;;9.60;3.08;;;;;;;8.55;100.00;100543.91;5051665;28;20320;-49
2021/11/11 00:15:42;;;;;;;12.40;2.88;;;;;;;8.57;100.00;100552.56;5037998;28;20897;-48
2021/11/11 00:18:45;;;;;;;7.35;2.75;;;;;;;8.59;100.00;100558.44;5033706;28;20044;-48
2021/11/11 00:21:48;;;;;;;5.43;3.40;;;;;;;8.59;100.00;100549.31;5034013;28;20035;-48
2021/11/11 00:24:51;;;;;;;6.75;2.30;;;;;;;8.62;100.00;100543.66;5034589;28;20395;-48
2021/11/11 00:27:54;;;;;;;20.20;3.05;;;;;;;8.66;100.00;100549.88;5034647;28;20440;-48
2021/11/11 00:30:57;;;;;;;10.57;3.38;;;;;;;8.66;100.00;100546.34;5034381;28;20428;-48
2021/11/11 00:34:02;;;;;;;10.48;2.45;;;;;;;8.70;100.00;100541.44;5033470;28;20558;-47
2021/11/11 00:37:05;;;;;;;5.80;1.00;;;;;;;8.72;100.00;100539.78;5033841;28;20035;-48
2021/11/11 00:40:09;;;;;;;12.43;2.97;;;;;;;8.75;100.00;100546.44;5034511;28;20039;-48
2021/11/11 00:43:12;;;;;;;7.43;3.20;;;;;;;8.76;100.00;100551.53;5036843;28;20039;-48
2021/11/11 00:46:15;;;;;;;19.27;2.53;;;;;;;8.78;100.00;100551.88;5039238;28;20041;-47
2021/11/11 00:49:19;;;;;;;12.38;3.15;;;;;;;8.77;100.00;100553.06;5039752;28;20056;-47
2021/11/11 00:52:22;;;;;;;8.30;2.95;;;;;;;8.75;100.00;100547.19;5041552;28;20035;-47
2021/11/11 00:55:26;;;;;;;9.55;3.13;;;;;;;8.75;100.00;100547.19;5042174;28;20748;-47
2021/11/11 00:58:29;;;;;;;7.53;2.50;;;;;;;8.75;100.00;100547.19;5040307;28;20028;-47
2021/11/11 01:01:32;;;;;;;9.90;2.95;;;;;;;8.74;100.00;100540.09;5036175;28;20103;-48
2021/11/11 01:04:37;;;;;;;7.55;2.70;;;;;;;8.72;100.00;100548.09;5033075;28;20434;-54
2021/11/11 01:07:41;;;;;;;10.88;3.25;;;;;;;8.68;100.00;100544.66;5032850;28;20268;-55
2021/11/11 01:10:44;;;;;;;2.78;1.38;;;;;;;8.65;100.00;100542.78;5032089;28;20035;-55
2021/11/11 01:13:47;;;;;;;7.38;2.17;;;;;;;8.64;100.00;100540.44;5032296;28;20626;-55
2021/11/11 01:16:52;;;;;;;7.60;2.22;;;;;;;8.62;100.00;100538.09;5037453;28;20502;-54
2021/11/11 01:19:56;;;;;;;8.38;2.97;;;;;;;8.62;100.00;100543.66;5035822;28;20040;-54
2021/11/11 01:22:59;;;;;;;4.75;2.63;;;;;;;8.63;100.00;100539.66;5035780;28;20051;-54
2021/11/11 01:26:04;;;;;;;7.40;2.72;;;;;;;8.59;100.00;100532.66;5034567;28;21158;-55
2021/11/11 01:29:08;;;;;;;10.43;2.22;;;;;;;8.64;100.00;100540.44;5034888;28;20382;-55
2021/11/11 01:32:11;;;;;;;5.22;2.03;;;;;;;8.65;100.00;100537.22;5035635;28;20566;-54
2021/11/11 01:35:15;;;;;;;9.88;2.60;;;;;;;8.69;100.00;100534.31;5033634;28;20085;-54
2021/11/11 01:38:18;;;;;;;7.82;2.28;;;;;;;8.72;100.00;100534.22;5055781;28;20035;-53
2021/11/11 01:41:21;;;;;;;6.30;1.85;;;;;;;8.74;100.00;100528.22;5072481;28;20058;-55
2021/11/11 01:44:24;;;;;;;5.85;1.77;;;;;;;8.75;100.00;100530.53;5071440;28;20044;-55
2021/11/11 01:47:27;;;;;;;14.20;2.42;;;;;;;8.76;100.00;100531.31;5071683;28;20051;-55
2021/11/11 01:50:30;;;;;;;10.10;2.70;;;;;;;8.78;100.00;100529.66;5071775;28;20047;-55
2021/11/11 01:53:34;;;;;;;7.30;2.88;;;;;;;8.79;100.00;100531.19;5073633;28;20058;-55
2021/11/11 01:56:37;;;;;;;12.05;3.08;;;;;;;8.82;100.00;100529.53;5071506;28;20506;-56
2021/11/11 01:59:41;;;;;;;8.40;1.92;;;;;;;8.80;100.00;100524.41;5072107;28;20113;-56
2021/11/11 02:02:44;;;;;;;12.07;3.17;;;;;;;8.81;100.00;100525.19;5073223;28;20043;-56
2021/11/11 02:05:49;;;;;;;8.30;1.70;;;;;;;8.83;100.00;100531.09;5073051;28;20098;-56
2021/11/11 02:08:52;;;;;;;6.72;2.60;;;;;;;8.81;100.00;100533.53;5073296;28;20039;-56
2021/11/11 02:11:55;;;;;;;12.80;2.95;;;;;;;8.82;100.00;100529.53;5089961;28;20073;-56
2021/11/11 02:14:58;;;;;;;10.82;2.70;;;;;;;8.81;100.00;100528.78;5087816;28;20419;-56
2021/11/11 02:18:03;;;;;;;13.05;2.53;;;;;;;8.87;100.00;100526.97;5087898;28;20047;-56
2021/11/11 02:21:06;;;;;;;15.75;2.88;;;;;;;8.81;100.00;100520.44;5073143;28;20083;-56
2021/11/11 02:24:09;;;;;;;6.65;2.00;;;;;;;8.85;100.00;100529.41;5073048;28;20042;-55
2021/11/11 02:27:12;;;;;;;6.00;2.85;;;;;;;8.85;100.00;100534.19;5088971;28;20035;-56
2021/11/11 02:30:17;;;;;;;4.78;2.33;;;;;;;8.82;100.00;100527.53;5091675;28;20434;-55
2021/11/11 02:33:24;;;;;;;3.58;1.63;;;;;;;8.83;100.00;100520.75;5087090;28;20404;-56
2021/11/11 02:36:27;;;;;;;5.32;2.58;;;;;;;8.79;100.00;100516.56;5087814;28;20047;-56
2021/11/11 02:39:34;;;;;;;6.22;1.50;;;;;;;8.77;100.00;100511.41;5089174;28;20061;-56
2021/11/11 02:42:38;;;;;;;8.35;3.50;;;;;;;8.74;100.00;100506.78;5089321;28;20043;-56
2021/11/11 02:45:45;;;;;;;8.10;2.97;;;;;;;8.69;100.00;100504.56;5091442;28;20039;-57
2021/11/11 02:48:48;;;;;;;9.23;2.13;;;;;;;8.63;100.00;100505.56;5090377;28;20039;-57
2021/11/11 02:51:51;;;;;;;14.00;2.08;;;;;;;8.60;100.00;100498.16;5090612;28;20097;-57
2021/11/11 02:54:54;;;;;;;11.57;2.58;;;;;;;8.56;100.00;100501.03;5090738;28;20042;-57
2021/11/11 02:57:58;;;;;;;27.13;3.35;;;;;;;8.53;100.00;100496.38;5089645;28;20101;-55
2021/11/11 03:01:04;;;;;;;12.68;3.50;;;;;;;8.53;100.00;100496.38;5091277;28;20104;-57
2021/11/11 03:04:07;;;;;;;6.40;1.75;;;;;;;8.56;100.00;100495.47;5087965;28;20039;-57
2021/11/11 03:07:10;;;;;;;8.90;4.18;;;;;;;8.57;100.00;100494.25;5072226;28;20047;-57
2021/11/11 03:10:17;;;;;;;12.05;3.38;;;;;;;8.58;100.00;100503.34;5072214;28;20047;-57
2021/11/11 03:13:20;;;;;;;8.77;3.22;;;;;;;8.55;100.00;100499.47;5072139;28;20044;-56
2021/11/11 03:16:24;;;;;;;10.77;2.15;;;;;;;8.54;100.00;100497.91;5077271;28;20035;-57
2021/11/11 03:19:27;;;;;;;13.27;4.57;;;;;;;8.53;100.00;100501.16;5072530;28;20457;-57
2021/11/11 03:22:31;;;;;;;6.13;2.03;;;;;;;8.49;100.00;100492.16;5072417;28;20127;-57
2021/11/11 03:25:36;;;;;;;5.55;2.38;;;;;;;8.43;100.00;100497.47;5072169;28;20043;-57
2021/11/11 03:28:39;;;;;;;3.60;1.23;;;;;;;8.42;100.00;100500.72;5071921;28;20082;-56
2021/11/11 03:31:42;;;;;;;9.20;3.70;;;;;;;8.37;100.00;100493.72;5072312;28;20109;-57
2021/11/11 03:34:45;;;;;;;5.60;2.03;;;;;;;8.36;100.00;100492.16;5071830;28;20076;-57
2021/11/11 03:37:50;;;;;;;3.67;1.77;;;;;;;8.33;100.00;100495.81;5071891;28;20067;-57
2021/11/11 03:40:53;;;;;;;11.95;2.75;;;;;;;8.26;100.00;100496.03;5071748;28;20047;-57
2021/11/11 03:43:56;;;;;;;9.70;2.00;;;;;;;8.18;100.00;100497.47;5072028;28;20047;-57
2021/11/11 03:47:01;;;;;;;8.38;2.38;;;;;;;8.14;100.00;100496.81;5075664;28;20047;-57
2021/11/11 03:50:05;;;;;;;4.57;2.15;;;;;;;8.08;100.00;100495.78;5075678;28;20089;-56
2021/11/11 03:53:09;;;;;;;9.55;2.92;;;;;;;7.99;100.00;100485.34;5075422;28;20047;-57
2021/11/11 03:56:12;;;;;;;10.93;2.05;;;;;;;7.89;100.00;100491.22;5075048;28;20128;-56
2021/11/11 03:59:16;;;;;;;13.15;2.65;;;;;;;7.81;100.00;100487.09;5075672;28;20051;-56
2021/11/11 04:02:23;;;;;;;4.38;2.35;;;;;;;7.71;100.00;100488.22;5075580;28;20512;-57
2021/11/11 04:05:26;;;;;;;6.70;2.63;;;;;;;7.65;100.00;100485.19;5075255;28;20047;-57
2021/11/11 04:08:30;;;;;;;9.25;2.95;;;;;;;7.59;100.00;100484.97;5075257;28;20051;-57
2021/11/11 04:11:34;;;;;;;13.43;2.17;;;;;;;7.58;100.00;100483.41;5075453;28;20116;-57
2021/11/11 04:14:37;;;;;;;7.22;2.53;;;;;;;7.55;100.00;100484.28;5075139;28;20170;-56
2021/11/11 04:17:40;;;;;;;2.65;1.80;;;;;;;7.52;100.00;100478.84;5083840;28;20051;-57
2021/11/11 04:20:43;;;;;;;9.10;4.25;;;;;;;7.52;100.00;100484.38;5075320;28;20055;-57
2021/11/11 04:23:48;;;;;;;9.00;2.42;;;;;;;7.51;100.00;100480.06;5075113;28;20044;-57
2021/11/11 04:26:59;;;;;;;9.15;2.75;;;;;;;7.52;100.00;100467.75;5075009;28;20454;-57
2021/11/11 04:30:13;;;;;;;11.38;3.58;;;;;;;7.56;100.00;100479.50;5074911;28;20063;-57
2021/11/11 04:33:17;;;;;;;6.80;1.73;;;;;;;7.59;100.00;100479.41;5075196;28;20047;-56
2021/11/11 04:40:34;;;;;;;15.07;3.35;;;;;;;7.67;100.00;100485.53;5075114;28;20389;-57
2021/11/11 05:03:37;;;;;;;15.50;2.22;;;;;;;7.96;100.00;100493.78;5074238;28;20048;-57
2021/11/11 05:06:41;;;;;;;17.67;2.90;;;;;;;8.02;100.00;100495.56;5077564;28;20132;-57
2021/11/11 05:09:44;;;;;;;11.18;2.40;;;;;;;8.05;100.00;100494.69;5074258;28;20047;-57
2021/11/11 05:12:47;;;;;;;7.63;1.50;;;;;;;8.11;100.00;100492.91;5074285;28;20123;-55
2021/11/11 05:15:51;;;;;;;12.43;3.75;;;;;;;8.14;100.00;100489.22;5077295;28;20142;-57
2021/11/11 05:18:54;;;;;;;8.05;3.20;;;;;;;8.19;100.00;100493.44;5076664;28;20039;-57
2021/11/11 05:21:57;;;;;;;4.55;2.05;;;;;;;8.21;100.00;100497.34;5073854;28;20412;-57
2021/11/11 05:25:00;;;;;;;9.15;2.17;;;;;;;8.22;100.00;100493.34;5073855;28;20089;-57
2021/11/11 05:28:04;;;;;;;8.25;2.38;;;;;;;8.22;100.00;100493.34;5073972;28;20118;-57
2021/11/11 05:31:07;;;;;;;13.60;2.50;;;;;;;8.26;100.00;100493.28;5074383;28;20051;-57
2021/11/11 05:34:10;;;;;;;9.90;3.05;;;;;;;8.27;100.00;100497.63;5074047;28;20090;-57
2021/11/11 05:37:13;;;;;;;4.05;2.78;;;;;;;8.26;100.00;100493.28;5073849;28;20070;-57
2021/11/11 05:40:18;;;;;;;11.57;3.38;;;;;;;8.24;100.00;100490.13;5073726;28;20059;-57
2021/11/11 05:43:21;;;;;;;6.20;2.28;;;;;;;8.27;100.00;100489.28;5073625;28;20173;-56
2021/11/11 05:46:24;;;;;;;16.05;2.85;;;;;;;8.28;100.00;100488.84;5073341;28;20102;-56
2021/11/11 05:49:27;;;;;;;5.22;2.88;;;;;;;8.30;100.00;100493.94;5073706;28;20507;-56
2021/11/11 05:52:31;;;;;;;22.20;3.63;;;;;;;8.31;100.00;100487.16;5073575;28;20047;-56
2021/11/11 05:55:34;;;;;;;7.32;1.88;;;;;;;8.33;100.00;100493.06;5073640;28;20036;-57
2021/11/11 05:58:37;;;;;;;23.05;3.17;;;;;;;8.32;100.00;100497.81;5073107;28;20086;-56
2021/11/11 06:01:40;;;;;;;7.35;2.95;;;;;;;8.33;100.00;100499.38;5073330;28;20035;-56
2021/11/11 06:04:43;;;;;;;6.07;2.00;;;;;;;8.35;100.00;100507.25;5072969;28;20506;-57
2021/11/11 06:07:47;;;;;;;6.00;2.03;;;;;;;8.35;100.00;100507.25;5072889;28;20047;-57
2021/11/11 06:10:50;;;;;;;26.98;4.28;;;;;;;8.33;100.00;100504.16;5072340;28;20097;-57
2021/11/11 06:13:53;;;;;;;5.65;1.63;;;;;;;8.34;100.00;100498.16;5073587;28;20397;-56
2021/11/11 06:16:57;;;;;;;3.28;2.28;;;;;;;8.30;100.00;100505.81;5085855;28;20035;-56
2021/11/11 06:20:00;;;;;;;11.00;3.00;;;;;;;8.28;100.00;100508.25;5073114;28;20073;-56
2021/11/11 06:23:03;;;;;;;6.95;2.38;;;;;;;8.28;100.00;100504.69;5073126;28;20047;-57
2021/11/11 06:26:06;;;;;;;8.43;2.53;;;;;;;8.27;100.00;100506.69;5073143;28;20439;-56
2021/11/11 06:29:09;;;;;;;2.92;1.15;;;;;;;8.28;100.00;100502.72;5072676;28;20051;-57
2021/11/11 06:32:13;;;;;;;3.90;1.85;;;;;;;8.27;100.00;100508.72;5072853;28;20385;-56
2021/11/11 06:35:15;;;;;;;4.03;2.05;;;;;;;8.25;100.00;100519.44;5072713;28;20471;-56
2021/11/11 06:38:18;;;;;;;2.92;0.75;;;;;;;8.24;100.00;100512.34;5073007;28;20043;-56
2021/11/11 06:41:21;;;;;;;6.18;2.05;;;;;;;8.25;100.00;100514.69;5072810;28;20048;-56
2021/11/11 06:44:24;;;;;;;10.05;2.60;;;;;;;8.24;100.00;100513.13;5072551;28;20400;-56
2021/11/11 06:47:27;;;;;;;38.72;6.97;;;;;;;8.23;100.00;100516.31;5072444;28;20042;-56
2021/11/11 06:50:29;;;;;;;11.02;3.05;;;;;;;8.22;100.00;100515.56;5072241;28;20098;-58
2021/11/11 06:53:33;;;;;;;10.95;2.25;;;;;;;8.24;100.00;100520.66;5072164;28;20060;-56
2021/11/11 06:56:37;;;;;;;5.50;2.78;;;;;;;8.23;100.00;100532.97;5072864;28;20040;-56
2021/11/11 06:59:40;;;;;;;9.25;2.22;;;;;;;8.21;100.00;100529.84;5072124;28;20044;-56
2021/11/11 07:02:43;;;;;;;11.80;5.07;;;;;;;8.29;100.00;100534.00;5072500;28;20097;-56
2021/11/11 07:05:47;;;;;;;12.25;3.70;;;;;;;8.31;100.00;100528.78;5072249;28;20067;-56
2021/11/11 07:08:50;;;;;;;7.05;1.60;;;;;;;8.31;100.00;100528.78;5072638;28;20131;-56
2021/11/11 07:11:52;;;;;;;9.52;1.98;;;;;;;8.30;100.00;100528.00;5072242;28;20066;-56
2021/11/11 07:14:56;;;;;;;8.40;2.53;;;;;;;8.26;100.00;100526.56;5072371;28;20042;-56
2021/11/11 07:18:00;;;;;;;3.05;1.70;;;;;;;8.26;100.00;100538.44;5072444;28;20087;-56
2021/11/11 07:21:03;;;;;;;1.77;1.10;;;;;;;8.26;100.00;100543.22;5075420;28;20044;-56
2021/11/11 07:24:06;;;;;;;7.80;2.72;;;;;;;8.25;100.00;100530.53;5076387;28;20089;-56
2021/11/11 07:27:09;;;;;;;3.20;1.40;;;;;;;8.21;100.00;100535.41;5076851;28;20050;-56
2021/11/11 07:30:15;;;;;;;9.23;2.38;;;;;;;8.14;100.00;100536.38;5076319;28;20123;-56
2021/11/11 07:33:18;;;;;;;6.55;1.95;;;;;;;8.17;100.00;100540.28;5076188;28;20059;-55
2021/11/11 07:36:21;;;;;;;3.85;2.20;;;;;;;8.14;100.00;100541.19;5075842;28;20492;-56
2021/11/11 07:39:25;;;;;;;11.98;1.25;;;;;;;8.13;100.00;100539.63;5076410;28;20105;-56
2021/11/11 07:42:28;;;;;;;20.90;2.25;;;;;;;8.16;100.00;100555.41;5075259;28;20120;-56
2021/11/11 07:45:31;;;;;;;2.03;0.98;;;;;;;8.15;100.00;100553.81;5075752;28;20048;-56
2021/11/11 07:48:34;;;;;;;5.53;2.15;;;;;;;8.17;100.00;100545.84;5075838;28;20452;-56
2021/11/11 07:51:38;;;;;;;4.25;1.92;;;;;;;8.14;100.00;100555.06;5076262;28;20124;-55
2021/11/11 07:54:41;;;;;;;3.15;1.02;;;;;;;8.11;100.00;100553.94;5075269;28;20097;-55
2021/11/11 07:57:45;;;;;;;16.17;1.45;;;;;;;8.07;100.00;100555.25;5075694;28;20090;-56
2021/11/11 08:00:49;;;;;;;6.10;1.60;;;;;;;8.12;100.00;100549.19;5076023;28;20188;-56
2021/11/11 08:03:52;;;;;;;4.25;1.73;;;;;;;8.19;100.00;100557.25;5075331;28;20421;-55
2021/11/11 08:06:55;;;;;;;1.75;1.33;;;;;;;8.18;100.00;100556.50;5075525;28;20052;-56
2021/11/11 08:09:58;;;;;;;1.35;0.88;;;;;;;8.19;100.00;100554.50;5075383;28;20412;-55
2021/11/11 08:13:02;;;;;;;5.47;1.02;;;;;;;8.25;100.00;100559.06;5075641;28;20051;-56
2021/11/11 08:16:05;;;;;;;2.00;0.63;;;;;;;8.29;100.00;100564.53;5079721;28;20035;-56
2021/11/11 08:19:09;;;;;;;9.13;1.48;;;;;;;8.31;100.00;100568.44;5075871;28;20381;-56
2021/11/11 08:22:12;;;;;;;4.15;0.90;;;;;;;8.35;100.00;100562.75;5075311;28;20511;-56
2021/11/11 08:25:17;;;;;;;10.65;1.50;;;;;;;8.34;100.00;100566.75;5075286;28;20048;-56
2021/11/11 08:28:21;;;;;;;2.47;1.17;;;;;;;8.35;100.00;100566.31;5074564;28;20132;-56
2021/11/11 08:31:25;;;;;;;3.70;0.77;;;;;;;8.36;100.00;100564.28;5074711;28;20502;-55
2021/11/11 08:34:27;;;;;;;6.40;1.45;;;;;;;8.37;100.00;100572.19;5074701;28;20063;-56
2021/11/11 08:37:30;;;;;;;2.53;1.15;;;;;;;8.37;100.00;100557.53;5075471;28;20051;-56
2021/11/11 08:40:33;;;;;;;4.88;1.50;;;;;;;8.41;100.00;100563.75;5074805;28;20109;-56
2021/11/11 08:43:38;;;;;;;2.65;1.75;;;;;;;8.40;100.00;100565.00;5075101;28;20105;-56
2021/11/11 08:46:41;;;;;;;1.85;1.48;;;;;;;8.39;100.00;100557.88;5074545;28;20071;-56
2021/11/11 08:49:46;;;;;;;2.40;0.55;;;;;;;8.41;100.00;100560.97;5074329;28;20036;-56
2021/11/11 08:52:54;;;;;;;2.65;1.52;;;;;;;8.42;100.00;100568.09;5074738;28;20047;-56
2021/11/11 08:55:58;;;;;;;4.78;1.20;;;;;;;8.42;100.00;100562.56;5074438;28;20477;-55
2021/11/11 08:59:02;;;;;;;4.95;0.95;;;;;;;8.41;100.00;100555.44;5074209;28;20047;-56
2021/11/11 09:02:06;;;;;;;3.13;1.35;;;;;;;8.39;100.00;100555.09;5074404;28;20311;-56
2021/11/11 09:05:09;;;;;;;0.25;0.20;;;;;;;8.40;100.00;100560.19;5074203;28;20393;-56
2021/11/11 09:08:14;;;;;;;1.80;1.02;;;;;;;8.47;100.00;100564.75;5074537;28;20435;-56
2021/11/11 09:11:18;;;;;;;1.83;0.95;;;;;;;8.49;100.00;100564.31;5074335;28;20594;-55
2021/11/11 09:14:22;;;;;;;1.48;0.82;;;;;;;8.53;100.00;100567.75;5074433;28;20545;-55
2021/11/11 09:17:24;;;;;;;0.60;0.50;;;;;;;8.62;100.00;100557.53;5082235;28;20070;-56
2021/11/11 09:20:28;;;;;;;1.88;0.98;;;;;;;8.69;100.00;100560.09;5074269;28;20446;-55
2021/11/11 09:23:32;;;;;;;2.50;1.08;;;;;;;8.75;100.00;100563.84;5074036;28;20055;-56
2021/11/11 09:26:37;;;;;;;6.63;1.88;;;;;;;8.75;100.00;100563.09;5073984;28;20039;-55
2021/11/11 09:29:40;;;;;;;7.10;0.93;;;;;;;8.77;100.00;100566.97;5073885;28;20052;-54
2021/11/11 09:32:43;;;;;;;4.15;1.98;;;;;;;8.75;100.00;100563.84;5073476;28;20060;-56
2021/11/11 09:35:46;;;;;;;1.42;1.10;;;;;;;8.81;100.00;100562.09;5074134;28;20131;-56
2021/11/11 09:38:50;;;;;;;3.88;1.05;;;;;;;8.86;100.00;100553.19;5073725;28;20504;-56
2021/11/11 09:41:56;;;;;;;7.57;1.90;;;;;;;8.88;100.00;100561.84;5073897;28;20043;-55
2021/11/11 09:44:59;;;;;;;3.53;0.50;;;;;;;8.91;100.00;100563.72;5073609;28;20051;-55
2021/11/11 09:48:03;;;;;;;4.03;0.93;;;;;;;9.03;100.00;100568.47;5073650;28;20130;-55
2021/11/11 09:51:12;;;;;;;4.35;0.98;;;;;;;9.08;100.00;100573.47;5073889;28;20044;-55
2021/11/11 10:00:54;;;;;;;4.45;1.08;;;;;;;9.35;100.00;100570.19;5083757;28;20039;-48
2021/11/11 10:03:58;;;;;;;4.63;1.38;;;;;;;9.47;100.00;100557.47;5072922;28;20504;-48
2021/11/11 10:07:02;;;;;;;3.53;1.13;;;;;;;9.55;100.00;100553.22;5073161;28;20210;-48
2021/11/11 10:10:06;;;;;;;2.65;0.80;;;;;;;9.59;100.00;100551.09;5073115;28;20179;-48
2021/11/11 10:13:16;;;;;;;4.78;1.02;;;;;;;9.67;100.00;100544.03;5072492;28;20090;-48
2021/11/11 10:16:19;;;;;;;4.20;0.98;;;;;;;9.72;100.00;100541.44;5080914;28;20078;-48
2021/11/11 10:19:23;;;;;;;3.22;1.30;;;;;;;9.86;100.00;100540.91;5073326;28;20071;-48
2021/11/11 10:22:31;;;;;;;3.42;0.80;;;;;;;9.94;100.00;100535.84;5071861;28;20047;-48
2021/11/11 10:25:34;;;;;;;6.13;1.15;;;;;;;9.92;100.00;100535.53;5073078;28;20094;-48
2021/11/11 10:28:39;;;;;;;5.05;1.30;;;;;;;9.93;100.00;100548.22;5072473;28;20622;-47
2021/11/11 10:31:53;;;;;;;1.70;0.93;;;;;;;9.91;100.00;100542.34;5072910;28;20142;-48
2021/11/11 10:34:59;;;;;;;5.32;1.83;;;;;;;9.95;100.00;100534.63;5072853;28;20110;-48
2021/11/11 10:38:07;;;;;;;2.83;0.98;;;;;;;10.04;100.00;100537.47;5072914;28;20134;-48
2021/11/11 10:41:11;;;;;;;2.05;0.77;;;;;;;10.10;100.00;100527.31;5072635;28;20438;-48
2021/11/11 10:44:29;;;;;;;4.32;0.95;;;;;;;10.12;100.00;100519.28;5071616;28;20488;-48
2021/11/11 10:47:34;;;;;;;2.03;1.02;;;;;;;10.12;100.00;100518.50;5071972;28;20051;-48
2021/11/11 10:50:45;;;;;;;1.35;0.63;;;;;;;10.13;100.00;100520.88;5072411;28;20047;-48
2021/11/11 10:54:03;;;;;;;2.42;1.75;;;;;;;10.15;100.00;100512.84;5071729;28;20541;-48
2021/11/11 10:57:06;;;;;;;1.42;0.32;;;;;;;10.23;100.00;100513.31;5072302;28;20043;-49
2021/11/11 11:00:10;;;;;;;4.50;1.15;;;;;;;10.22;100.00;100511.78;5072482;28;20090;-48
2021/11/11 11:03:30;;;;;;;3.92;1.13;;;;;;;10.29;100.00;100511.47;5072184;28;20046;-48
2021/11/11 11:06:34;;;;;;;7.35;1.30;;;;;;;10.33;100.00;100507.31;5072173;28;20051;-48
2021/11/11 11:09:39;;;;;;;0.70;0.50;;;;;;;10.37;100.00;100505.16;5071994;28;20121;-48
2021/11/11 11:12:43;;;;;;;4.05;1.10;;;;;;;10.52;100.00;100497.03;5072174;28;20043;-48
2021/11/11 11:15:53;;;;;;;2.28;0.90;;;;;;;10.57;100.00;100490.84;5075584;28;20059;-48
2021/11/11 11:19:02;;;;;;;0.85;0.57;;;;;;;10.66;100.00;100480.53;5076846;28;20111;-49
2021/11/11 11:22:05;;;;;;;2.72;0.45;;;;;;;10.84;100.00;100484.56;5072318;28;20404;-49
2021/11/11 11:25:09;;;;;;;5.10;0.85;;;;;;;10.84;100.00;100479.00;5072142;28;20071;-48
2021/11/11 11:28:31;;;;;;;4.20;0.80;;;;;;;10.81;100.00;100474.34;5072063;28;20043;-48
2021/11/11 11:31:51;;;;;;;2.67;0.90;;;;;;;10.84;100.00;100471.44;5071601;28;20043;-48
2021/11/11 11:34:58;;;;;;;1.38;0.60;;;;;;;10.98;100.00;100464.47;5071536;28;20043;-49
2021/11/11 11:38:20;;;;;;;1.58;0.40;;;;;;;11.00;100.00;100468.31;5072023;28;20047;-48
2021/11/11 11:41:28;;;;;;;0.68;0.50;;;;;;;11.04;100.00;100465.41;5071387;28;20052;-49
2021/11/11 11:44:39;;;;;;;2.38;0.73;;;;;;;11.14;100.00;100453.00;5074744;28;20090;-48
2021/11/11 11:47:58;;;;;;;;;;;;;;;11.21;100.00;100452.72;5088480;28;20043;-49
2021/11/11 11:51:05;;;;;;;0.95;0.65;;;;;;;11.15;100.00;100454.56;5071932;28;20314;-49
2021/11/11 11:54:19;;;;;;;1.92;0.65;;;;;;;11.06;100.00;100452.56;5071918;28;20389;-49
2021/11/11 12:10:25;;;;;;;10.40;1.60;;;;;;;11.26;100.00;100446.53;5075255;28;20149;-48
2021/11/11 12:13:52;;;;;;;1.17;0.43;;;;;;;11.38;100.00;100440.78;5090144;28;20139;-49
2021/11/11 12:41:13;;;;;;;3.65;1.17;;;;;;;11.81;100.00;100400.53;5074878;28;20051;-48
2021/11/11 12:44:19;;;;;;;3.22;0.77;;;;;;;11.91;100.00;100399.25;5074639;28;20040;-47
2021/11/11 12:47:43;;;;;;;4.93;0.75;;;;;;;12.01;100.00;100408.38;5074478;28;20144;-47
2021/11/11 12:50:45;;;;;;;1.85;0.88;;;;;;;12.06;100.00;100405.69;5074962;28;20043;-48
2021/11/11 12:53:51;;;;;;;5.63;1.48;;;;;;;12.02;100.00;100402.31;5073677;28;20043;-48
2021/11/11 12:57:14;;;;;;;1.75;0.60;;;;;;;11.99;100.00;100394.91;5074094;28;20058;-48
2021/11/11 13:00:51;;;;;;;4.38;0.77;;;;;;;12.14;100.00;100390.16;5074343;28;20114;-48
2021/11/11 13:04:00;;;;;;;3.38;0.60;;;;;;;12.25;100.00;100398.03;5067998;28;20539;-48
2021/11/11 13:07:03;;;;;;;3.65;0.98;;;;;;;12.12;100.00;100394.69;5074542;28;20047;-48
2021/11/11 13:10:17;;;;;;;1.52;0.65;;;;;;;11.99;100.00;100397.69;5073924;28;20063;-48
2021/11/11 13:13:25;;;;;;;7.75;1.50;;;;;;;11.95;100.00;100393.53;5074009;28;20051;-48
2021/11/11 13:16:27;;;;;;;5.20;0.95;;;;;;;11.90;100.00;100397.72;5077046;28;20094;-48
2021/11/11 13:19:36;;;;;;;3.15;1.13;;;;;;;11.83;100.00;100392.47;5073774;28;20468;-54
2021/11/11 14:01:12;;;;;;;5.30;0.80;;;;;;;11.70;100.00;100372.38;5104518;28;20051;-49
2021/11/11 16:20:43;;;;;;;2.83;0.77;;;;;;;11.05;100.00;100213.31;5074928;28;20067;-52
2021/11/11 16:24:04;;;;;;;1.38;0.50;;;;;;;11.06;100.00;100214.88;5073977;28;20573;-52
2021/11/11 16:27:08;;;;;;;2.03;0.73;;;;;;;10.99;100.00;100212.41;5090130;28;20055;-52
2021/11/11 16:30:32;;;;;;;1.48;0.90;;;;;;;10.94;100.00;100205.47;5081249;28;20488;-52
2021/11/11 16:33:37;;;;;;;1.70;0.65;;;;;;;10.93;100.00;100211.50;5075105;28;20055;-52
2021/11/11 16:36:41;;;;;;;3.95;0.90;;;;;;;10.89;100.00;100208.13;5082090;28;20086;-52
2021/11/11 16:39:48;;;;;;;1.45;0.55;;;;;;;10.86;100.00;100207.03;5074552;28;20047;-52
2021/11/11 16:42:53;;;;;;;8.45;1.30;;;;;;;10.83;100.00;100210.75;5075401;28;20050;-51
2021/11/11 16:45:57;;;;;;;3.38;0.65;;;;;;;10.81;100.00;100206.88;5074512;28;20070;-52
2021/11/11 16:49:02;;;;;;;4.88;0.73;;;;;;;10.79;100.00;100214.94;5073634;28;20396;-52
2021/11/11 16:52:07;;;;;;;3.22;1.58;;;;;;;10.78;100.00;100218.97;5076584;28;20102;-52
2021/11/11 16:55:11;;;;;;;3.03;0.50;;;;;;;10.77;100.00;100206.28;5079303;28;20043;-52
2021/11/11 16:58:15;;;;;;;1.13;0.50;;;;;;;10.74;100.00;100213.59;5112346;27;20090;-52
2021/11/11 17:01:24;;;;;;;3.17;1.15;;;;;;;10.72;100.00;100209.72;5092053;28;20062;-52
2021/11/11 17:04:37;;;;;;;2.15;0.57;;;;;;;10.69;100.00;100211.41;5092231;28;20096;-52
2021/11/11 17:17:50;;;;;;;3.60;1.00;;;;;;;10.71;100.00;100197.00;5084866;28;20059;-52
2021/11/11 17:21:12;;;;;;;4.35;0.90;;;;;;;10.71;100.00;100203.38;5073036;28;20105;-52
2021/11/11 17:24:35;;;;;;;3.92;1.80;;;;;;;10.70;100.00;100206.63;5073926;28;20043;-51
2021/11/11 17:37:08;;;;;;;3.17;0.63;;;;;;;10.83;100.00;100210.00;5036445;28;20068;-51
2021/11/11 17:40:15;;;;;;;3.63;0.65;;;;;;;10.81;100.00;100184.59;5041809;28;20068;-52
2021/11/11 17:43:19;;;;;;;0.63;0.60;;;;;;;10.82;100.00;100181.38;5037628;28;20039;-51
2021/11/11 17:46:26;;;;;;;0.77;0.60;;;;;;;10.82;100.00;100175.00;5046993;28;20052;-51
2021/11/11 17:49:50;;;;;;;1.02;0.45;;;;;;;10.85;100.00;100174.09;5049922;28;20087;-52
2021/11/11 17:53:03;;;;;;;0.55;0.20;;;;;;;10.86;100.00;100170.03;5033715;28;20544;-52
2021/11/11 17:56:07;;;;;;;4.95;0.75;;;;;;;10.88;100.00;100159.19;5036803;28;20044;-50
2021/11/11 17:59:10;;;;;;;2.13;0.88;;;;;;;10.86;100.00;100148.53;5059430;28;20094;-50
2021/11/11 18:02:26;;;;;;;3.42;0.90;;;;;;;10.88;100.00;100139.69;5033096;28;20135;-51
2021/11/11 18:05:32;;;;;;;2.60;0.80;;;;;;;10.92;100.00;100131.94;5031549;28;20080;-51
2021/11/11 18:08:36;;;;;;;8.40;1.23;;;;;;;10.94;100.00;100133.00;5044021;28;20602;-51
2021/11/11 18:11:43;;;;;;;1.67;0.43;;;;;;;10.94;100.00;100129.44;5038015;28;20044;-51
2021/11/11 18:14:53;;;;;;;3.08;0.73;;;;;;;10.95;100.00;100122.66;5052793;28;20051;-51
2021/11/11 18:17:57;;;;;;;4.43;0.52;;;;;;;10.97;100.00;100120.16;5032809;28;20044;-51
2021/11/11 18:21:00;;;;;;;3.03;0.63;;;;;;;10.96;100.00;100107.47;5048964;28;20090;-51
2021/11/11 18:24:04;;;;;;;0.95;0.65;;;;;;;10.94;100.00;100109.94;5032577;28;20048;-51
2021/11/11 18:27:07;;;;;;;8.88;1.55;;;;;;;10.97;100.00;100104.22;5032507;28;20068;-51
2021/11/11 18:33:27;;;;;;;2.30;1.13;;;;;;;10.91;100.00;100094.19;5034651;28;20094;-51
2021/11/11 18:36:38;;;;;;;2.88;1.23;;;;;;;10.90;100.00;100098.97;5069874;28;20047;-52
2021/11/11 18:39:42;;;;;;;;;;;;;;;10.89;100.00;100096.66;5072257;28;20089;-51
2021/11/11 18:42:45;;;;;;;4.03;1.73;;;;;;;10.87;100.00;100105.47;5072216;28;19958;-50